Aérodrome :







RETROUVEZ-NOUS SUR...

 
LOGIN :

S'inscrire | Disclaimer

   EN    FR    IT 

 









Légende :    VFR   VFR Marginal   IFR   IFR Intensif   IFR Très Intensif
Visi : 
Plafond : 
>= 8 km
>= 3000ft
5 à 8 km
1000 à 3000 ft
1500m à 5 km
500 à 1000 ft
800 à 1500m
200 à 500 ft
< 800m
< 200 ft
Symboles :   Orages  Brouillard  Fortes neiges  Fortes précipitations  Vent > 20 kt






- Altitude de l'aérodrome : 235 ft
- Code IATA : CCS


SVMI - Simon Bolivar

DERNIER METAR :
  • 021600Z 09007KT 9999 FEW016 30/24 Q1013

METARs EXPIRÉS :
  • 021502Z AUTO 07012KT NCD ///// Q1014
  • 021500Z 09003KT 9999 FEW016 29/24 Q1013
  • 021402Z AUTO 03005KT NCD ///// Q1014

TAF TAF SVMI
Valide du 02 à 12h jusqu'au 03 à 12h UTC


021000Z 0212/0312 00000KT 9999 FEW016 TX33/18Z TN22/07Z
BECMG 0216/0222 09008KT SCT016
FM022300 07004KT 9999 FEW016
FIR SVZM / Amérique du Sud



MET'MAP, la Météo Aéronautique d'un coup d'oeil ! - Copyright ORBIFLY Décembre 2007 - Disclaimer

ORBIFLY MET'MAP TEAM :

Programmation & Développement : Alexandra Zaïnal
Sur une idée originale de : Baudouin d'Aumeries
Assistance à la programmation : Marc-Olivier Méhu
Soutien technique & logistique : Manuel Goepfert

Contact : metmap@orbifly.com




SOURCES & CREDITS :

   NOAA